ASA6172 KRDU-KDCA
Flight info
| Callsign | ASA6172 |
|---|---|
| Flight time | N/A |
| Altitude | 25000 |
| Route | BEXGO5 BOUSY WAVES CAPSS3 |
| Aircraft | A319/M-SDE3FGHIRWY/LB1 |
Departure
| Time | 2026-05-07 16:22 |
|---|---|
| Airport | Raleigh-Durham International Airport (KRDU) |
Arrival
| Time | N/A |
|---|---|
| Airport | Ronald Reagan Washington National Airport (KDCA) |
| Time | Latitude | Longitude | Altitude | Speed | Heading |
|---|---|---|---|---|---|
| 2026-05-07 15:33 | 35.87372 | -78.78983 | 435 ft | 0 kts | 315° |
| 2026-05-07 16:12 | 35.87368 | -78.78978 | 425 ft | 4 kts | 315° |
| 2026-05-07 16:12 | 35.87348 | -78.78956 | 435 ft | 4 kts | 321° |
| 2026-05-07 16:12 | 35.87325 | -78.78937 | 433 ft | 4 kts | 336° |
| 2026-05-07 16:13 | 35.87313 | -78.78931 | 432 ft | 0 kts | 345° |
| 2026-05-07 16:15 | 35.87319 | -78.78933 | 432 ft | 3 kts | 345° |
| 2026-05-07 16:15 | 35.87332 | -78.78928 | 424 ft | 3 kts | 30° |
| 2026-05-07 16:16 | 35.87359 | -78.78886 | 426 ft | 7 kts | 63° |
| 2026-05-07 16:16 | 35.87386 | -78.78848 | 428 ft | 5 kts | 43° |
| 2026-05-07 16:16 | 35.87407 | -78.78824 | 429 ft | 3 kts | 43° |
| 2026-05-07 16:16 | 35.87418 | -78.78810 | 430 ft | 1 kts | 44° |
| 2026-05-07 16:17 | 35.87430 | -78.78796 | 429 ft | 6 kts | 44° |
| 2026-05-07 16:17 | 35.87464 | -78.78754 | 430 ft | 8 kts | 44° |
| 2026-05-07 16:17 | 35.87509 | -78.78695 | 427 ft | 10 kts | 53° |
| 2026-05-07 16:17 | 35.87552 | -78.78613 | 435 ft | 12 kts | 57° |
| 2026-05-07 16:18 | 35.87603 | -78.78519 | 429 ft | 14 kts | 52° |
| 2026-05-07 16:18 | 35.87670 | -78.78436 | 435 ft | 13 kts | 44° |
| 2026-05-07 16:18 | 35.87731 | -78.78362 | 429 ft | 12 kts | 44° |
| 2026-05-07 16:18 | 35.87784 | -78.78297 | 432 ft | 10 kts | 45° |
| 2026-05-07 16:19 | 35.87828 | -78.78243 | 430 ft | 8 kts | 45° |
| 2026-05-07 16:19 | 35.87862 | -78.78200 | 429 ft | 6 kts | 46° |
| 2026-05-07 16:19 | 35.87891 | -78.78164 | 429 ft | 7 kts | 45° |
| 2026-05-07 16:19 | 35.87954 | -78.78084 | 433 ft | 16 kts | 45° |
| 2026-05-07 16:20 | 35.87976 | -78.78054 | 429 ft | 2 kts | 60° |
| 2026-05-07 16:20 | 35.87977 | -78.78036 | 424 ft | 3 kts | 90° |
| 2026-05-07 16:20 | 35.87960 | -78.78009 | 437 ft | 5 kts | 131° |
| 2026-05-07 16:20 | 35.87936 | -78.77976 | 438 ft | 6 kts | 134° |
| 2026-05-07 16:21 | 35.87873 | -78.77992 | 432 ft | 10 kts | 218° |
| 2026-05-07 16:21 | 35.87823 | -78.78056 | 436 ft | 11 kts | 226° |
| 2026-05-07 16:21 | 35.87650 | -78.78273 | 429 ft | 80 kts | 225° |
| 2026-05-07 16:21 | 35.87047 | -78.79017 | 455 ft | 159 kts | 227° |
| 2026-05-07 16:22 | 35.86274 | -78.79951 | 1418 ft | 154 kts | 225° |
| 2026-05-07 16:22 | 35.85507 | -78.80840 | 2345 ft | 152 kts | 224° |
| 2026-05-07 16:22 | 35.84618 | -78.81806 | 2690 ft | 194 kts | 225° |
| 2026-05-07 16:22 | 35.83673 | -78.83132 | 3196 ft | 220 kts | 244° |
| 2026-05-07 16:23 | 35.83361 | -78.85046 | 3886 ft | 244 kts | 278° |
| 2026-05-07 16:23 | 35.83871 | -78.86595 | 4599 ft | 261 kts | 306° |
| 2026-05-07 16:23 | 35.84397 | -78.87287 | 5052 ft | 264 kts | 308° |
| 2026-05-07 16:23 | 35.84508 | -78.87417 | 5115 ft | 263 kts | 313° |
| 2026-05-07 16:24 | 35.84510 | -78.87420 | 5120 ft | 263 kts | 313° |
| 2026-05-07 16:24 | 35.84732 | -78.87663 | 5283 ft | 250 kts | 318° |
| 2026-05-07 16:25 | 35.84865 | -78.87795 | 5450 ft | 242 kts | 331° |